Kisaragi Maru No.11 — JD2766 — position and weather

sailwx.info

Track history (hours):
 
Tides and Currents Weather Stations Pressure Air Temp Water Temp Dewpoint Dewpoint Depression Visibility Wind Speed Wind Dir Waves Ship Positions

Kisaragi Maru No.11

Last reported at 2018-Jul-21 16:02 UTC. Time now 2018-Jul-23 11:25 UTC.
Position N 35°00' E 139°32'.

Length 79 m; draft 5.2 m.

MMSI: 431000664.

Date/timePositionNaut miles runAvg speedWind from/ knotsBaromVisibWave heightAir tempDewpointWater temp
2018-Jul-21 16:02N 35°00' E 139°32'211.1
2018-Jul-21 15:54N 35°01' E 139°33'411.2
2018-Jul-21 15:30N 35°04' E 139°37'611.2
2018-Jul-21 15:00N 35°07' E 139°43'611.5
2018-Jul-21 14:30N 35°12' E 139°46'510.7
2018-Jul-21 14:00N 35°18' E 139°44'511.0
2018-Jul-21 13:30N 35°23' E 139°42'611.8
2018-Jul-21 13:00N 35°28' E 139°47'3 6.1
2018-Jul-21 12:30N 35°31' E 139°45'0 0.6
2018-Jul-21 12:00N 35°31' E 139°45'0 0.0
2018-Jul-21 11:30N 35°31' E 139°45'0 0.0
2018-Jul-21 11:00N 35°31' E 139°45'0 0.0
2018-Jul-21 10:30N 35°31' E 139°45'0 0.0
2018-Jul-21 10:00N 35°31' E 139°45'0 0.0
2018-Jul-21 09:30N 35°31' E 139°45'0 0.0
2018-Jul-21 09:00N 35°31' E 139°45'0 0.0
2018-Jul-21 08:30N 35°31' E 139°45'0 0.0
2018-Jul-21 07:59N 35°31' E 139°45'0 0.0
2018-Jul-21 07:30N 35°31' E 139°45'0 0.0
2018-Jul-21 07:00N 35°31' E 139°45'0 0.0
2018-Jul-21 06:30N 35°31' E 139°45'0 0.0
2018-Jul-21 06:00N 35°31' E 139°45'0 0.0
2018-Jul-21 05:30N 35°31' E 139°45'0 0.0
2018-Jul-21 05:00N 35°31' E 139°45'0 0.0
2018-Jul-21 04:30N 35°31' E 139°45'1 1.2
2018-Jul-21 04:00N 35°30' E 139°45'3 6.4
2018-Jul-21 03:30N 35°28' E 139°42'4 7.5
2018-Jul-21 02:59N 35°24' E 139°45'0 0.0
2018-Jul-21 02:30N 35°24' E 139°45'0 0.0
2018-Jul-21 02:00N 35°24' E 139°45'0 0.0
2018-Jul-21 01:30N 35°24' E 139°45'0 0.0
2018-Jul-21 00:54N 35°24' E 139°45'0 0.0
2018-Jul-21 00:27N 35°24' E 139°45'0 0.0
2018-Jul-21 00:00N 35°24' E 139°45'0 0.0
2018-Jul-20 23:30N 35°24' E 139°45'0 0.1
2018-Jul-20 23:00N 35°24' E 139°45'0 0.1
2018-Jul-20 22:30N 35°24' E 139°45'0 0.1
2018-Jul-20 21:57N 35°24' E 139°45'3 6.3
2018-Jul-20 21:30N 35°21' E 139°44'611.0
2018-Jul-20 21:00N 35°16' E 139°46'611.6
2018-Jul-20 20:30N 35°10' E 139°47'612.7
2018-Jul-20 20:00N 35°05' E 139°43'713.3
2018-Jul-20 19:30N 35°01' E 139°37'  
2018-Jul-16 04:13N 33°28' E 135°00'  
Track history (hours):
 
Tides and Currents Weather Stations Pressure Air Temp Water Temp Dewpoint Dewpoint Depression Visibility Wind Speed Wind Dir Waves Ship Positions

Kisaragi Maru No.11

Last reported at 2018-Jul-21 16:02 UTC. Time now 2018-Jul-23 11:25 UTC.
Position N 35°00' E 139°32'.

Length 79 m; draft 5.2 m.

MMSI: 431000664.

Date/timePositionNaut miles runAvg speedWind from/ knotsBaromVisibWave heightAir tempDewpointWater temp
2018-Jul-21 16:02N 35°00' E 139°32'211.1
2018-Jul-21 15:54N 35°01' E 139°33'411.2
2018-Jul-21 15:30N 35°04' E 139°37'611.2
2018-Jul-21 15:00N 35°07' E 139°43'611.5
2018-Jul-21 14:30N 35°12' E 139°46'510.7
2018-Jul-21 14:00N 35°18' E 139°44'511.0
2018-Jul-21 13:30N 35°23' E 139°42'611.8
2018-Jul-21 13:00N 35°28' E 139°47'3 6.1
2018-Jul-21 12:30N 35°31' E 139°45'0 0.6
2018-Jul-21 12:00N 35°31' E 139°45'0 0.0
2018-Jul-21 11:30N 35°31' E 139°45'0 0.0
2018-Jul-21 11:00N 35°31' E 139°45'0 0.0
2018-Jul-21 10:30N 35°31' E 139°45'0 0.0
2018-Jul-21 10:00N 35°31' E 139°45'0 0.0
2018-Jul-21 09:30N 35°31' E 139°45'0 0.0
2018-Jul-21 09:00N 35°31' E 139°45'0 0.0
2018-Jul-21 08:30N 35°31' E 139°45'0 0.0
2018-Jul-21 07:59N 35°31' E 139°45'0 0.0
2018-Jul-21 07:30N 35°31' E 139°45'0 0.0
2018-Jul-21 07:00N 35°31' E 139°45'0 0.0
2018-Jul-21 06:30N 35°31' E 139°45'0 0.0
2018-Jul-21 06:00N 35°31' E 139°45'0 0.0
2018-Jul-21 05:30N 35°31' E 139°45'0 0.0
2018-Jul-21 05:00N 35°31' E 139°45'0 0.0
2018-Jul-21 04:30N 35°31' E 139°45'1 1.2
2018-Jul-21 04:00N 35°30' E 139°45'3 6.4
2018-Jul-21 03:30N 35°28' E 139°42'4 7.5
2018-Jul-21 02:59N 35°24' E 139°45'0 0.0
2018-Jul-21 02:30N 35°24' E 139°45'0 0.0
2018-Jul-21 02:00N 35°24' E 139°45'0 0.0
2018-Jul-21 01:30N 35°24' E 139°45'0 0.0
2018-Jul-21 00:54N 35°24' E 139°45'0 0.0
2018-Jul-21 00:27N 35°24' E 139°45'0 0.0
2018-Jul-21 00:00N 35°24' E 139°45'0 0.0
2018-Jul-20 23:30N 35°24' E 139°45'0 0.1
2018-Jul-20 23:00N 35°24' E 139°45'0 0.1
2018-Jul-20 22:30N 35°24' E 139°45'0 0.1
2018-Jul-20 21:57N 35°24' E 139°45'3 6.3
2018-Jul-20 21:30N 35°21' E 139°44'611.0
2018-Jul-20 21:00N 35°16' E 139°46'611.6
2018-Jul-20 20:30N 35°10' E 139°47'612.7
2018-Jul-20 20:00N 35°05' E 139°43'713.3
2018-Jul-20 19:30N 35°01' E 139°37'  
2018-Jul-16 04:13N 33°28' E 135°00'  

Dump ship's entire track history